Time;durP1;ratioP1;P1;durP2;ratioP2;P2;SDS_P1;SDS_P2;PMS_P1;PMS_P2;Temp;Humidity;BMP_temperature;BMP_pressure;BME280_temperature;BME280_humidity;BME280_pressure;Samples;Min_cycle;Max_cycle;Signal;HPM_P1;HPM_P2
2020/12/06 00:00:20;;;;;;;40.10;28.03;;;5.40;99.90;;;;;;5078117;28;20451;-29
2020/12/06 00:02:47;;;;;;;39.07;29.10;;;5.40;99.90;;;;;;5077951;28;20424;-27
2020/12/06 00:05:16;;;;;;;39.27;27.73;;;5.50;99.90;;;;;;5076490;28;20472;-27
2020/12/06 00:07:43;;;;;;;36.47;25.53;;;5.50;99.90;;;;;;5076185;28;20447;-27
2020/12/06 00:10:17;;;;;;;39.90;25.30;;;5.50;99.90;;;;;;5077155;28;20460;-27
2020/12/06 00:12:46;;;;;;;38.43;25.90;;;5.50;99.90;;;;;;5077131;28;20446;-28
2020/12/06 00:15:13;;;;;;;34.97;26.00;;;5.50;99.90;;;;;;5078203;28;20443;-29
2020/12/06 00:17:40;;;;;;;36.37;24.37;;;5.50;99.90;;;;;;5078157;28;20436;-27
2020/12/06 00:20:10;;;;;;;40.90;27.70;;;5.50;99.90;;;;;;5075427;28;20491;-26
2020/12/06 00:22:38;;;;;;;36.63;25.43;;;5.50;99.90;;;;;;5079307;28;20439;-26
2020/12/06 00:25:07;;;;;;;37.70;24.97;;;5.50;99.90;;;;;;5078559;28;20521;-26
2020/12/06 00:27:37;;;;;;;33.10;23.40;;;5.50;99.90;;;;;;5078827;28;20456;-27
2020/12/06 00:30:06;;;;;;;34.60;24.87;;;5.50;99.90;;;;;;5078151;28;20444;-26
2020/12/06 00:32:33;;;;;;;39.30;24.27;;;5.50;99.90;;;;;;5077783;28;20433;-30
2020/12/06 00:35:00;;;;;;;37.03;25.37;;;5.50;99.90;;;;;;5076852;28;20448;-28
2020/12/06 00:37:27;;;;;;;36.03;25.73;;;5.50;99.90;;;;;;5077444;28;20439;-29
2020/12/06 00:39:56;;;;;;;35.00;25.30;;;5.50;99.90;;;;;;5078024;28;20842;-28
2020/12/06 00:42:23;;;;;;;36.63;24.77;;;5.40;99.90;;;;;;5077186;28;20437;-28
2020/12/06 00:44:50;;;;;;;37.13;24.30;;;5.30;99.90;;;;;;5075725;28;20465;-27
2020/12/06 00:47:17;;;;;;;34.50;23.87;;;5.30;99.90;;;;;;5076618;28;20441;-27
2020/12/06 00:49:45;;;;;;;35.90;25.37;;;5.30;99.90;;;;;;5076229;28;20440;-27
2020/12/06 00:52:13;;;;;;;37.57;24.37;;;5.30;99.90;;;;;;5076427;28;20889;-29
2020/12/06 00:54:40;;;;;;;30.33;24.40;;;5.30;99.90;;;;;;5069353;28;20436;-27
2020/12/06 00:57:11;;;;;;;34.30;23.80;;;5.30;99.90;;;;;;5075998;28;20864;-28
2020/12/06 00:59:38;;;;;;;37.10;24.40;;;5.30;99.90;;;;;;5075692;28;20444;-27
2020/12/06 01:02:06;;;;;;;34.70;24.37;;;5.20;99.90;;;;;;5076593;28;20441;-27
2020/12/06 01:04:33;;;;;;;35.00;23.03;;;5.00;99.90;;;;;;5076374;28;20472;-27
2020/12/06 01:07:01;;;;;;;37.37;24.40;;;4.90;99.90;;;;;;5076208;28;20532;-27
2020/12/06 01:09:29;;;;;;;30.23;22.70;;;4.90;99.90;;;;;;5075645;28;21084;-29
2020/12/06 01:11:58;;;;;;;36.70;26.57;;;4.90;99.90;;;;;;5075364;28;20464;-27
2020/12/06 01:14:27;;;;;;;31.57;22.80;;;4.90;99.90;;;;;;5075382;28;20441;-29
2020/12/06 01:16:54;;;;;;;39.37;24.70;;;4.90;99.90;;;;;;5076330;28;20483;-29
2020/12/06 01:19:21;;;;;;;35.20;23.50;;;5.00;99.90;;;;;;5076417;28;20511;-29
2020/12/06 01:21:50;;;;;;;34.47;25.30;;;5.00;99.90;;;;;;5059441;28;20485;-26
2020/12/06 01:24:17;;;;;;;37.50;24.93;;;4.90;99.90;;;;;;5056753;28;20464;-28
2020/12/06 01:26:46;;;;;;;34.47;25.27;;;5.00;99.90;;;;;;5056640;28;20449;-27
2020/12/06 01:29:14;;;;;;;37.00;24.70;;;5.00;99.90;;;;;;5055439;28;20453;-29
2020/12/06 01:31:49;;;;;;;47.33;26.57;;;5.10;99.90;;;;;;5047738;28;20434;-28
2020/12/06 01:34:17;;;;;;;35.73;23.13;;;5.10;99.90;;;;;;5055917;28;20453;-27
2020/12/06 01:36:43;;;;;;;33.03;23.37;;;5.20;99.90;;;;;;5055166;28;20465;-27
2020/12/06 01:39:11;;;;;;;40.27;26.80;;;5.20;99.90;;;;;;5055050;28;20448;-26
2020/12/06 01:41:39;;;;;;;38.23;24.40;;;5.20;99.90;;;;;;5055557;28;20437;-27
2020/12/06 01:44:06;;;;;;;34.17;23.07;;;5.20;99.90;;;;;;5055538;28;20747;-27
2020/12/06 01:46:37;;;;;;;41.17;26.43;;;5.20;99.90;;;;;;5066945;28;20500;-26
2020/12/06 01:49:07;;;;;;;36.10;24.80;;;5.20;99.90;;;;;;5075702;28;20440;-28
2020/12/06 01:51:36;;;;;;;32.83;22.03;;;5.20;99.90;;;;;;5075305;28;20495;-28
2020/12/06 01:54:04;;;;;;;40.90;24.27;;;5.20;99.90;;;;;;5073171;28;20448;-26
2020/12/06 01:56:31;;;;;;;42.37;25.10;;;5.10;99.90;;;;;;5071674;28;20502;-27
2020/12/06 01:58:59;;;;;;;39.43;27.77;;;5.10;99.90;;;;;;5070873;28;20441;-27
2020/12/06 02:01:26;;;;;;;41.27;25.10;;;5.10;99.90;;;;;;5072054;28;20812;-30
2020/12/06 02:03:55;;;;;;;39.10;25.30;;;5.10;99.90;;;;;;5071749;28;20476;-26
2020/12/06 02:06:23;;;;;;;42.23;25.13;;;5.20;99.90;;;;;;5071662;28;20909;-29
2020/12/06 02:08:50;;;;;;;37.43;25.93;;;5.20;99.90;;;;;;5071516;28;20877;-28
2020/12/06 02:11:33;;;;;;;41.87;26.90;;;5.20;99.90;;;;;;5069622;28;20801;-27
2020/12/06 02:14:01;;;;;;;38.13;24.17;;;5.00;99.90;;;;;;5050557;28;20438;-27
2020/12/06 02:16:28;;;;;;;41.93;25.77;;;5.00;99.90;;;;;;5051194;28;20441;-30
2020/12/06 02:18:56;;;;;;;43.40;27.87;;;5.10;99.90;;;;;;5051368;28;20441;-28
2020/12/06 02:21:24;;;;;;;42.53;26.77;;;5.10;99.90;;;;;;5051144;28;20442;-27
2020/12/06 02:23:52;;;;;;;48.13;27.63;;;5.10;99.90;;;;;;5052001;28;20438;-28
2020/12/06 02:26:19;;;;;;;40.70;24.60;;;5.00;99.90;;;;;;5050271;28;20493;-28
2020/12/06 02:28:47;;;;;;;40.30;23.37;;;5.00;99.90;;;;;;5067750;28;20462;-26
2020/12/06 02:31:14;;;;;;;39.13;25.07;;;5.00;99.90;;;;;;5070928;28;20751;-29
2020/12/06 02:33:42;;;;;;;39.07;24.93;;;5.00;99.90;;;;;;5070672;28;20457;-27
2020/12/06 02:36:09;;;;;;;40.43;26.07;;;5.00;99.90;;;;;;5070764;28;20440;-27
2020/12/06 02:38:39;;;;;;;40.90;24.97;;;5.00;99.90;;;;;;5070958;28;20496;-28
2020/12/06 02:41:06;;;;;;;37.00;25.50;;;4.90;99.90;;;;;;5071255;28;20445;-27
2020/12/06 02:43:34;;;;;;;35.90;24.00;;;4.90;99.90;;;;;;5072680;28;21007;-27
2020/12/06 02:46:01;;;;;;;41.53;24.60;;;4.80;99.90;;;;;;5071988;28;20505;-27
2020/12/06 02:48:28;;;;;;;45.60;28.07;;;4.70;99.90;;;;;;5072030;28;20453;-29
2020/12/06 02:50:55;;;;;;;38.10;26.10;;;4.80;99.90;;;;;;5071994;28;20456;-28
2020/12/06 02:53:23;;;;;;;35.90;24.80;;;4.70;99.90;;;;;;5062801;28;20437;-27
2020/12/06 02:55:51;;;;;;;39.10;26.27;;;4.60;99.90;;;;;;5070610;28;20527;-26
2020/12/06 02:58:18;;;;;;;43.63;27.57;;;4.60;99.90;;;;;;5057281;28;20501;-27
2020/12/06 03:00:45;;;;;;;38.20;25.47;;;4.60;99.90;;;;;;5050657;28;20437;-28
2020/12/06 03:03:13;;;;;;;42.30;24.97;;;4.40;99.90;;;;;;5050639;28;20769;-28
2020/12/06 03:05:40;;;;;;;45.10;26.50;;;4.40;99.90;;;;;;5050022;28;20749;-27
2020/12/06 03:08:08;;;;;;;43.03;25.27;;;4.50;99.90;;;;;;5051329;28;20442;-26
2020/12/06 03:10:35;;;;;;;40.47;25.10;;;4.50;99.90;;;;;;5051987;28;20444;-27
2020/12/06 03:13:02;;;;;;;41.73;25.90;;;4.60;99.90;;;;;;5051791;28;20476;-29
2020/12/06 03:15:30;;;;;;;38.50;25.20;;;4.60;99.90;;;;;;5052235;28;20434;-28
2020/12/06 03:17:58;;;;;;;43.30;25.67;;;4.60;99.90;;;;;;5051901;28;20441;-30
2020/12/06 03:20:25;;;;;;;49.90;25.53;;;4.60;99.90;;;;;;5051674;28;20472;-28
2020/12/06 03:22:53;;;;;;;47.53;27.37;;;4.70;99.90;;;;;;5056739;28;20511;-28
2020/12/06 03:25:20;;;;;;;41.40;26.97;;;4.70;99.90;;;;;;5071465;28;20461;-31
2020/12/06 03:27:50;;;;;;;42.07;25.47;;;4.70;99.90;;;;;;5072163;28;20479;-29
2020/12/06 03:30:22;;;;;;;38.83;26.73;;;4.60;99.90;;;;;;5071764;28;20526;-28
2020/12/06 03:32:50;;;;;;;40.73;26.00;;;4.60;99.90;;;;;;5070606;28;20441;-27
2020/12/06 03:35:18;;;;;;;37.30;24.20;;;4.70;99.90;;;;;;5070885;28;20440;-28
2020/12/06 03:37:44;;;;;;;47.20;25.40;;;4.70;99.90;;;;;;5071491;28;20873;-27
2020/12/06 03:40:12;;;;;;;40.27;22.60;;;4.70;99.90;;;;;;5071759;28;20963;-28
2020/12/06 03:42:40;;;;;;;41.67;23.60;;;4.70;99.90;;;;;;5071601;28;20437;-27
2020/12/06 03:45:07;;;;;;;38.50;25.03;;;4.80;99.90;;;;;;5070650;28;20476;-28
2020/12/06 03:47:35;;;;;;;44.83;26.37;;;4.80;99.90;;;;;;5069302;28;20488;-31
2020/12/06 03:50:03;;;;;;;43.53;25.40;;;4.80;99.90;;;;;;5070772;28;20440;-30
2020/12/06 03:52:32;;;;;;;42.03;26.53;;;4.80;99.90;;;;;;5071390;28;21243;-29
2020/12/06 03:55:00;;;;;;;41.60;25.60;;;4.90;99.90;;;;;;5071823;28;20928;-28
2020/12/06 03:57:29;;;;;;;38.37;24.00;;;4.90;99.90;;;;;;5072037;28;20531;-26
2020/12/06 03:59:56;;;;;;;35.03;23.00;;;4.80;99.90;;;;;;5071692;28;20469;-27
2020/12/06 04:02:24;;;;;;;38.30;23.13;;;4.60;99.90;;;;;;5061380;28;20467;-27
2020/12/06 04:04:52;;;;;;;34.57;22.93;;;4.70;99.90;;;;;;5070756;28;20476;-26
2020/12/06 04:07:20;;;;;;;39.87;22.37;;;4.70;99.90;;;;;;5071405;28;20432;-26
2020/12/06 04:09:47;;;;;;;40.33;24.67;;;4.70;99.90;;;;;;5070227;28;20471;-26
2020/12/06 04:12:15;;;;;;;40.40;23.90;;;4.80;99.90;;;;;;5066125;28;20448;-27
2020/12/06 04:14:42;;;;;;;36.13;22.10;;;4.90;99.90;;;;;;5044322;28;20491;-27
2020/12/06 04:17:10;;;;;;;38.80;24.80;;;4.90;99.90;;;;;;5050772;28;20449;-26
2020/12/06 04:19:37;;;;;;;36.97;23.17;;;5.00;99.90;;;;;;5050108;28;20438;-26
2020/12/06 04:22:06;;;;;;;37.50;25.20;;;5.10;99.90;;;;;;5050800;28;20448;-27
2020/12/06 04:24:33;;;;;;;37.23;23.50;;;5.10;99.90;;;;;;5049442;28;20477;-27
2020/12/06 04:27:00;;;;;;;34.87;23.20;;;5.10;99.90;;;;;;5050376;28;20433;-26
2020/12/06 04:29:27;;;;;;;51.47;28.43;;;5.10;99.90;;;;;;5050371;28;20453;-27
2020/12/06 04:31:57;;;;;;;40.07;22.73;;;5.10;99.90;;;;;;5052129;28;20450;-27
2020/12/06 04:34:23;;;;;;;37.63;22.60;;;5.10;99.90;;;;;;5053208;28;20457;-27
2020/12/06 04:36:51;;;;;;;44.37;24.73;;;5.00;99.90;;;;;;5053483;28;20445;-27
2020/12/06 04:39:19;;;;;;;41.03;22.87;;;4.80;99.90;;;;;;5072357;28;21162;-27
2020/12/06 04:41:46;;;;;;;38.20;24.13;;;4.80;99.90;;;;;;5073682;28;20467;-27
2020/12/06 04:44:14;;;;;;;36.80;22.00;;;4.70;99.90;;;;;;5074214;28;21049;-26
2020/12/06 04:46:42;;;;;;;33.27;21.40;;;4.60;99.90;;;;;;5074189;28;20492;-26
2020/12/06 04:49:42;;;;;;;35.90;22.53;;;4.60;99.90;;;;;;5074110;28;20448;-27
2020/12/06 04:52:15;;;;;;;32.60;21.10;;;4.50;99.90;;;;;;5070539;28;20468;-26
2020/12/06 04:54:50;;;;;;;37.37;23.13;;;4.50;99.90;;;;;;5073614;28;20435;-27
2020/12/06 04:57:19;;;;;;;41.87;23.43;;;4.50;99.90;;;;;;5071837;28;20447;-28
2020/12/06 04:59:47;;;;;;;37.77;22.93;;;4.60;99.90;;;;;;5072766;28;20724;-28
2020/12/06 05:02:19;;;;;;;34.83;21.23;;;4.60;99.90;;;;;;5070115;28;20449;-27
2020/12/06 05:04:50;;;;;;;39.27;23.83;;;4.50;99.90;;;;;;5072227;28;20433;-27
2020/12/06 05:07:19;;;;;;;37.33;23.43;;;4.50;99.90;;;;;;5072802;28;20451;-26
2020/12/06 05:09:48;;;;;;;45.70;25.33;;;4.50;99.90;;;;;;5071231;28;20733;-27
2020/12/06 05:12:16;;;;;;;41.30;22.97;;;4.60;99.90;;;;;;5073504;28;20877;-26
2020/12/06 05:14:44;;;;;;;44.80;25.67;;;4.70;99.90;;;;;;5073092;28;20502;-27
2020/12/06 05:17:10;;;;;;;48.20;25.73;;;4.70;99.90;;;;;;5072183;28;20478;-29
2020/12/06 05:19:39;;;;;;;43.03;25.20;;;4.80;99.90;;;;;;5072125;28;20556;-27
2020/12/06 05:22:07;;;;;;;39.67;24.30;;;4.80;99.90;;;;;;5071397;28;20444;-28
2020/12/06 05:24:34;;;;;;;44.10;25.57;;;4.80;99.90;;;;;;5072417;28;20468;-29
2020/12/06 05:27:02;;;;;;;41.70;24.43;;;4.80;99.90;;;;;;5070750;28;20476;-27
2020/12/06 05:29:29;;;;;;;44.93;25.10;;;4.80;99.90;;;;;;5051476;28;20544;-27
2020/12/06 05:31:58;;;;;;;48.80;25.43;;;4.70;99.90;;;;;;5052887;28;21055;-26
2020/12/06 05:34:25;;;;;;;40.23;25.70;;;4.60;99.90;;;;;;5052507;28;20437;-26
2020/12/06 05:36:52;;;;;;;42.73;26.00;;;4.50;99.90;;;;;;5052618;28;20435;-27
2020/12/06 05:39:22;;;;;;;45.93;25.47;;;4.50;99.90;;;;;;5052444;28;21044;-27
2020/12/06 05:41:50;;;;;;;44.33;26.17;;;4.50;99.90;;;;;;5052921;28;20449;-27
2020/12/06 05:44:21;;;;;;;48.30;27.00;;;4.50;99.90;;;;;;5053031;28;20491;-26
2020/12/06 05:46:49;;;;;;;43.30;25.27;;;4.50;99.90;;;;;;5051624;28;20465;-27
2020/12/06 05:49:19;;;;;;;43.90;30.20;;;4.60;99.90;;;;;;5051380;28;20434;-27
2020/12/06 05:51:52;;;;;;;40.30;23.30;;;4.70;99.90;;;;;;5052443;28;21241;-28
2020/12/06 05:54:23;;;;;;;41.13;25.20;;;4.70;99.90;;;;;;5052137;28;20471;-27
2020/12/06 05:56:55;;;;;;;38.13;24.43;;;4.80;99.90;;;;;;5052462;28;20960;-27
2020/12/06 05:59:23;;;;;;;42.13;25.10;;;4.80;99.90;;;;;;5050983;28;20449;-27
2020/12/06 06:01:53;;;;;;;42.27;23.63;;;4.90;99.90;;;;;;5050912;28;20445;-27
2020/12/06 06:04:21;;;;;;;31.47;22.17;;;4.90;99.90;;;;;;5051393;28;20441;-26
2020/12/06 06:06:51;;;;;;;36.50;21.60;;;4.90;99.90;;;;;;5051189;28;20465;-27
2020/12/06 06:09:19;;;;;;;38.40;23.30;;;5.00;99.90;;;;;;5052068;28;21114;-27
2020/12/06 06:11:56;;;;;;;39.23;24.50;;;5.00;99.90;;;;;;5051780;28;20540;-27
2020/12/06 06:14:28;;;;;;;40.10;24.43;;;5.00;99.90;;;;;;5051590;28;20426;-27
2020/12/06 06:16:57;;;;;;;33.00;22.20;;;5.10;99.90;;;;;;5050904;28;20481;-27
2020/12/06 06:19:25;;;;;;;39.20;23.50;;;5.10;99.90;;;;;;5051533;28;20483;-26
2020/12/06 06:21:54;;;;;;;37.13;23.43;;;5.10;99.90;;;;;;5050917;28;20441;-26
2020/12/06 06:24:24;;;;;;;36.07;22.80;;;5.10;99.90;;;;;;5052233;28;20556;-26
2020/12/06 06:26:54;;;;;;;34.27;22.77;;;5.10;99.90;;;;;;5050882;28;20458;-26
2020/12/06 06:29:21;;;;;;;36.43;24.43;;;5.10;99.90;;;;;;5050996;28;20477;-27
2020/12/06 06:31:51;;;;;;;39.13;23.17;;;5.10;99.90;;;;;;5050636;28;20785;-27
2020/12/06 06:34:23;;;;;;;37.67;24.20;;;5.10;99.90;;;;;;5052006;28;20889;-27
2020/12/06 06:36:52;;;;;;;40.47;24.87;;;5.10;99.90;;;;;;5051471;28;20483;-27
2020/12/06 06:39:22;;;;;;;44.03;25.87;;;5.10;99.90;;;;;;5051715;28;20539;-26
2020/12/06 06:42:00;;;;;;;44.97;27.23;;;5.10;99.90;;;;;;5051826;28;20449;-26
2020/12/06 06:44:29;;;;;;;40.50;24.33;;;5.10;99.90;;;;;;5051226;28;20443;-27
2020/12/06 06:47:03;;;;;;;45.13;25.57;;;5.20;99.90;;;;;;5050058;28;20461;-27
2020/12/06 06:49:34;;;;;;;44.53;25.90;;;5.20;99.90;;;;;;5050851;28;20441;-26
2020/12/06 06:52:04;;;;;;;46.27;26.17;;;5.20;99.90;;;;;;5050930;28;20519;-27
2020/12/06 06:54:32;;;;;;;59.90;32.10;;;5.20;99.90;;;;;;5042591;28;20442;-28
2020/12/06 06:57:01;;;;;;;48.40;28.13;;;5.20;99.90;;;;;;5049387;28;20494;-26
2020/12/06 06:59:39;;;;;;;51.40;27.23;;;5.20;99.90;;;;;;5050309;28;20449;-27
2020/12/06 07:02:07;;;;;;;62.63;31.87;;;5.20;99.90;;;;;;5051071;28;20465;-27
2020/12/06 07:04:34;;;;;;;56.23;30.80;;;5.10;99.90;;;;;;5050066;28;20527;-27
2020/12/06 07:07:00;;;;;;;64.53;31.63;;;5.10;99.90;;;;;;5043685;28;20458;-27
2020/12/06 07:09:29;;;;;;;58.90;30.17;;;5.10;99.90;;;;;;5049467;28;20453;-27
2020/12/06 07:11:58;;;;;;;50.67;30.70;;;5.10;99.90;;;;;;5051383;28;20465;-27
2020/12/06 07:14:27;;;;;;;57.53;30.33;;;5.00;99.90;;;;;;5050648;28;20444;-27
2020/12/06 07:16:56;;;;;;;55.33;29.00;;;5.00;99.90;;;;;;5050307;28;20499;-27
2020/12/06 07:19:25;;;;;;;56.27;30.67;;;5.00;99.90;;;;;;5049995;28;20433;-28
2020/12/06 07:21:52;;;;;;;57.07;29.83;;;5.10;99.90;;;;;;5049228;28;20858;-27
2020/12/06 07:24:20;;;;;;;48.73;28.40;;;5.10;99.90;;;;;;5049405;28;20449;-26
2020/12/06 07:26:48;;;;;;;61.13;32.30;;;5.10;99.90;;;;;;5048835;28;21124;-26
2020/12/06 07:29:15;;;;;;;54.00;30.40;;;5.20;99.90;;;;;;5049771;28;21247;-27
2020/12/06 07:31:42;;;;;;;58.53;28.63;;;5.20;99.90;;;;;;5059005;28;20497;-27
2020/12/06 07:34:10;;;;;;;51.90;29.37;;;5.10;99.90;;;;;;5050040;28;20793;-27
2020/12/06 07:36:41;;;;;;;51.37;29.97;;;5.10;99.90;;;;;;5049946;28;20540;-29
2020/12/06 07:39:15;;;;;;;48.80;28.97;;;5.00;99.90;;;;;;5049864;28;20485;-26
2020/12/06 07:41:47;;;;;;;53.17;28.53;;;5.00;99.90;;;;;;5048551;28;20478;-27
2020/12/06 07:44:15;;;;;;;50.60;27.20;;;4.90;99.90;;;;;;5050991;28;20438;-27
2020/12/06 07:46:43;;;;;;;45.33;26.90;;;4.90;99.90;;;;;;5043211;28;20888;-26
2020/12/06 07:49:11;;;;;;;54.20;26.33;;;4.90;99.90;;;;;;5047995;28;20434;-26
2020/12/06 07:51:39;;;;;;;58.27;30.43;;;4.90;99.90;;;;;;5049660;28;20442;-26
2020/12/06 07:54:07;;;;;;;45.10;26.30;;;5.00;99.90;;;;;;5049418;28;20437;-27
2020/12/06 07:56:35;;;;;;;56.57;26.63;;;5.00;99.90;;;;;;5049277;28;20540;-27
2020/12/06 07:59:22;;;;;;;61.37;30.10;;;5.10;99.90;;;;;;5048287;28;20484;-27
2020/12/06 08:01:51;;;;;;;58.27;28.30;;;5.10;99.90;;;;;;5048524;28;20942;-27
2020/12/06 08:04:27;;;;;;;55.83;28.27;;;5.10;99.90;;;;;;5049000;28;20438;-27
2020/12/06 08:07:03;;;;;;;55.30;26.27;;;4.90;99.90;;;;;;5053218;28;20577;-26
2020/12/06 08:09:36;;;;;;;58.43;29.43;;;4.90;99.90;;;;;;5053093;28;20445;-26
2020/12/06 08:12:04;;;;;;;55.03;28.67;;;4.80;99.90;;;;;;5052600;28;20444;-27
2020/12/06 08:14:32;;;;;;;55.20;28.63;;;4.80;99.90;;;;;;5052567;28;20438;-26
2020/12/06 08:16:59;;;;;;;51.20;28.43;;;4.80;99.90;;;;;;5051127;28;20454;-27
2020/12/06 08:19:28;;;;;;;51.63;28.27;;;4.70;99.90;;;;;;5052277;28;20528;-27
2020/12/06 08:22:00;;;;;;;62.30;28.10;;;4.70;99.90;;;;;;5053840;28;20442;-27
2020/12/06 08:24:30;;;;;;;51.70;29.33;;;4.70;99.90;;;;;;5035554;28;20446;-26
2020/12/06 08:26:58;;;;;;;57.57;29.10;;;4.80;99.90;;;;;;5052119;28;21104;-27
2020/12/06 08:29:39;;;;;;;67.63;31.50;;;4.80;99.90;;;;;;5051435;28;21174;-27
2020/12/06 08:32:06;;;;;;;58.20;28.07;;;4.80;99.90;;;;;;5050262;28;20885;-26
2020/12/06 08:34:34;;;;;;;55.00;27.27;;;4.80;99.90;;;;;;5071667;28;20436;-27
2020/12/06 08:37:20;;;;;;;63.13;30.97;;;4.70;99.90;;;;;;5071872;28;21015;-27
2020/12/06 08:39:49;;;;;;;60.30;27.07;;;4.70;99.90;;;;;;5073309;28;20857;-27
2020/12/06 08:42:21;;;;;;;77.37;31.67;;;4.70;99.90;;;;;;5071979;28;20531;-26
2020/12/06 08:44:53;;;;;;;60.77;29.30;;;4.70;99.90;;;;;;5073376;28;20899;-26
2020/12/06 08:47:21;;;;;;;69.17;29.60;;;4.70;99.90;;;;;;5071351;28;20492;-25
2020/12/06 08:49:50;;;;;;;66.37;30.00;;;4.80;99.90;;;;;;5070622;28;20433;-27
2020/12/06 08:52:23;;;;;;;57.70;26.93;;;4.80;99.90;;;;;;5069147;28;20459;-27
2020/12/06 08:54:50;;;;;;;56.70;25.00;;;4.90;99.90;;;;;;5072150;28;20858;-27
2020/12/06 08:57:21;;;;;;;60.20;30.60;;;4.90;99.90;;;;;;5068741;28;20601;-27
2020/12/06 08:59:51;;;;;;;50.03;25.33;;;5.00;99.90;;;;;;5071563;28;20448;-26
2020/12/06 09:02:23;;;;;;;52.67;27.30;;;5.10;99.90;;;;;;5070833;28;20445;-26
2020/12/06 09:04:52;;;;;;;52.80;23.20;;;5.10;99.90;;;;;;5071178;28;20473;-27
2020/12/06 09:07:20;;;;;;;45.27;23.67;;;5.10;99.90;;;;;;5069506;28;20484;-28
2020/12/06 09:09:49;;;;;;;46.30;24.80;;;5.10;99.90;;;;;;5069370;28;20441;-26
2020/12/06 09:12:20;;;;;;;49.30;23.60;;;5.30;99.90;;;;;;5067372;28;20475;-27
2020/12/06 09:14:53;;;;;;;54.80;25.47;;;5.30;99.90;;;;;;5071147;28;20445;-27
2020/12/06 09:17:20;;;;;;;42.10;21.70;;;5.40;99.90;;;;;;5027626;28;20465;-27
2020/12/06 09:19:48;;;;;;;43.00;22.90;;;5.40;99.90;;;;;;5070484;28;20452;-27
2020/12/06 09:22:15;;;;;;;42.47;23.90;;;5.50;99.90;;;;;;5063073;28;20474;-27
2020/12/06 09:24:44;;;;;;;54.10;25.17;;;5.50;99.90;;;;;;5050113;28;20910;-27
2020/12/06 09:27:10;;;;;;;44.37;22.87;;;5.50;99.90;;;;;;5049535;28;20470;-27
2020/12/06 09:29:38;;;;;;;42.90;22.00;;;5.60;99.90;;;;;;5050700;28;20438;-28
2020/12/06 09:32:05;;;;;;;43.77;21.77;;;5.60;99.90;;;;;;5049638;28;20537;-28
2020/12/06 09:34:33;;;;;;;41.00;22.00;;;5.70;99.90;;;;;;5043498;28;20445;-28
2020/12/06 09:36:59;;;;;;;41.27;22.77;;;5.90;99.90;;;;;;5051424;28;20445;-27
2020/12/06 09:39:27;;;;;;;47.40;24.83;;;5.90;99.90;;;;;;5051215;28;20523;-28
2020/12/06 09:41:55;;;;;;;38.53;20.73;;;6.00;99.90;;;;;;5050266;28;20453;-27
2020/12/06 09:44:21;;;;;;;44.03;22.33;;;6.00;99.90;;;;;;5050348;28;20548;-28
2020/12/06 09:46:48;;;;;;;39.83;20.20;;;6.10;99.90;;;;;;5050345;28;20985;-28
2020/12/06 09:49:15;;;;;;;29.70;18.27;;;6.10;99.90;;;;;;5066728;28;20830;-27
2020/12/06 09:51:42;;;;;;;51.20;28.00;;;6.00;99.90;;;;;;5051361;28;20942;-27
2020/12/06 09:54:10;;;;;;;48.37;28.07;;;5.90;99.90;;;;;;5069765;28;20432;-27
2020/12/06 09:56:37;;;;;;;38.00;21.60;;;5.90;99.90;;;;;;5070458;28;20801;-27
2020/12/06 09:59:06;;;;;;;37.63;20.73;;;5.80;99.90;;;;;;5069705;28;20452;-27
2020/12/06 10:01:35;;;;;;;39.33;22.50;;;5.80;99.90;;;;;;5070261;28;20494;-28
2020/12/06 10:04:03;;;;;;;41.03;21.70;;;5.80;99.90;;;;;;5068288;28;20456;-27
2020/12/06 10:06:33;;;;;;;42.90;21.73;;;5.90;99.90;;;;;;5071379;28;20464;-29
2020/12/06 10:08:59;;;;;;;32.70;20.17;;;6.00;99.90;;;;;;5070518;28;20543;-27
2020/12/06 10:11:26;;;;;;;44.20;24.57;;;6.20;99.90;;;;;;5070012;28;21198;-28
2020/12/06 10:13:54;;;;;;;35.60;20.07;;;6.30;99.90;;;;;;5068708;28;20484;-28
2020/12/06 10:16:23;;;;;;;38.30;20.53;;;6.40;99.90;;;;;;5062816;28;20949;-29
2020/12/06 10:18:54;;;;;;;31.23;18.77;;;6.50;99.90;;;;;;5070180;28;20444;-27
2020/12/06 10:21:22;;;;;;;36.57;20.50;;;6.70;99.90;;;;;;5068514;28;20548;-28
2020/12/06 10:23:50;;;;;;;32.30;19.90;;;6.70;99.90;;;;;;5070312;28;20796;-28
2020/12/06 10:26:17;;;;;;;34.00;19.20;;;6.70;99.90;;;;;;5069643;28;20806;-28
2020/12/06 10:28:44;;;;;;;32.23;17.30;;;6.70;99.90;;;;;;5067851;28;20457;-27
2020/12/06 10:31:11;;;;;;;34.63;19.23;;;6.70;99.90;;;;;;5070618;28;20503;-28
2020/12/06 10:33:40;;;;;;;30.40;18.10;;;6.60;99.90;;;;;;5062967;28;20437;-27
2020/12/06 10:36:07;;;;;;;30.60;17.87;;;6.50;99.90;;;;;;5069746;28;21088;-28
2020/12/06 10:38:34;;;;;;;30.07;18.00;;;6.40;99.90;;;;;;5068910;28;20786;-27
2020/12/06 10:41:01;;;;;;;32.27;18.13;;;6.40;99.90;;;;;;5070571;28;20437;-27
2020/12/06 10:43:29;;;;;;;31.97;18.30;;;6.30;99.90;;;;;;5070258;28;20832;-27
2020/12/06 10:45:56;;;;;;;37.80;20.07;;;6.30;99.90;;;;;;5071219;28;20460;-27
2020/12/06 10:48:24;;;;;;;31.80;18.57;;;6.30;99.90;;;;;;5069737;28;20440;-27
2020/12/06 10:50:52;;;;;;;36.07;18.13;;;6.20;99.90;;;;;;5068843;28;20487;-28
2020/12/06 10:53:22;;;;;;;43.27;19.30;;;6.20;99.90;;;;;;5067556;28;20582;-28
2020/12/06 10:55:49;;;;;;;40.80;18.87;;;6.20;99.90;;;;;;5069314;28;20440;-27
2020/12/06 10:58:16;;;;;;;37.23;19.63;;;6.20;99.90;;;;;;5069443;28;20555;-28
2020/12/06 11:00:43;;;;;;;34.93;20.00;;;6.10;99.90;;;;;;5052424;28;20588;-27
2020/12/06 11:03:11;;;;;;;39.93;20.23;;;6.00;99.90;;;;;;5049244;28;20430;-27
2020/12/06 11:05:39;;;;;;;42.63;20.20;;;5.90;99.90;;;;;;5048924;28;20507;-28
2020/12/06 11:08:08;;;;;;;41.07;19.07;;;5.90;99.90;;;;;;5047645;28;20450;-27
2020/12/06 11:10:34;;;;;;;40.23;20.43;;;5.80;99.90;;;;;;5048844;28;20442;-28
2020/12/06 11:13:02;;;;;;;38.03;20.10;;;5.70;99.90;;;;;;5048672;28;20453;-27
2020/12/06 11:15:30;;;;;;;38.47;18.97;;;5.70;99.90;;;;;;5048771;28;20481;-26
2020/12/06 11:17:59;;;;;;;36.50;19.10;;;5.60;99.90;;;;;;5047274;28;20453;-27
2020/12/06 11:20:25;;;;;;;36.37;16.93;;;5.60;99.90;;;;;;5049753;28;20510;-27
2020/12/06 11:22:52;;;;;;;38.47;20.70;;;5.80;99.90;;;;;;5049409;28;20453;-28
2020/12/06 11:25:19;;;;;;;36.07;19.13;;;5.90;99.90;;;;;;5049021;28;21044;-27
2020/12/06 11:27:46;;;;;;;33.40;18.40;;;5.80;99.90;;;;;;5049836;28;20457;-27
2020/12/06 11:30:12;;;;;;;34.20;18.57;;;5.80;99.90;;;;;;5049467;28;20433;-27
2020/12/06 11:32:39;;;;;;;35.57;17.07;;;5.90;99.90;;;;;;5048309;28;20545;-28
2020/12/06 11:35:06;;;;;;;32.97;18.33;;;5.90;99.90;;;;;;5046447;28;20441;-27
2020/12/06 11:37:32;;;;;;;41.80;18.60;;;5.90;99.90;;;;;;5046965;28;20460;-29
2020/12/06 11:39:59;;;;;;;45.13;23.50;;;6.00;99.90;;;;;;5046946;28;20478;-27
2020/12/06 11:42:26;;;;;;;42.70;22.80;;;6.00;99.90;;;;;;5048093;28;20449;-27
2020/12/06 11:44:53;;;;;;;29.87;15.97;;;6.10;99.90;;;;;;5048392;28;20434;-28
2020/12/06 11:47:21;;;;;;;33.47;17.50;;;6.20;99.90;;;;;;5039789;28;20458;-27
2020/12/06 11:49:48;;;;;;;34.63;21.93;;;6.10;99.90;;;;;;5047770;28;20499;-28
2020/12/06 11:52:15;;;;;;;31.80;15.60;;;6.20;99.90;;;;;;5049231;28;21135;-27
2020/12/06 11:54:41;;;;;;;36.07;17.40;;;6.20;99.90;;;;;;5048067;28;20492;-27
2020/12/06 11:57:08;;;;;;;27.33;16.40;;;6.20;99.90;;;;;;5048923;28;20433;-27
2020/12/06 11:59:35;;;;;;;33.90;17.97;;;6.30;99.90;;;;;;5048877;28;20501;-28
2020/12/06 12:02:02;;;;;;;34.63;15.90;;;6.30;99.90;;;;;;5049827;28;20446;-28
2020/12/06 12:04:29;;;;;;;27.40;16.00;;;6.30;99.90;;;;;;5048154;28;20441;-28
2020/12/06 12:06:55;;;;;;;35.17;16.03;;;6.30;99.90;;;;;;5047731;28;20539;-27
2020/12/06 12:09:22;;;;;;;27.10;15.63;;;6.20;99.90;;;;;;5048245;28;20455;-27
2020/12/06 12:11:48;;;;;;;30.20;17.93;;;6.20;99.90;;;;;;5047945;28;20583;-28
2020/12/06 12:14:15;;;;;;;29.37;15.97;;;6.20;99.90;;;;;;5048426;28;21156;-27
2020/12/06 12:16:45;;;;;;;30.20;16.90;;;6.10;99.90;;;;;;5048580;28;20429;-27
2020/12/06 12:19:12;;;;;;;26.23;15.27;;;6.20;99.90;;;;;;5048777;28;20537;-27
2020/12/06 12:21:38;;;;;;;35.00;19.23;;;6.20;99.90;;;;;;5047907;28;20461;-27
2020/12/06 12:24:05;;;;;;;26.73;14.63;;;6.20;99.90;;;;;;5047471;28;20707;-27
2020/12/06 12:26:32;;;;;;;35.17;16.33;;;6.20;99.90;;;;;;5048213;28;20484;-27
2020/12/06 12:28:58;;;;;;;27.43;15.93;;;6.20;99.90;;;;;;5046917;28;21062;-27
2020/12/06 12:31:25;;;;;;;36.07;16.33;;;6.30;99.90;;;;;;5038040;28;21168;-28
2020/12/06 12:33:53;;;;;;;31.63;15.13;;;6.30;99.90;;;;;;5047549;28;20448;-28
2020/12/06 12:36:20;;;;;;;29.43;15.30;;;6.20;99.90;;;;;;5047684;28;20450;-28
2020/12/06 12:38:46;;;;;;;27.17;14.90;;;6.20;99.90;;;;;;5048182;28;21142;-28
2020/12/06 12:41:14;;;;;;;23.23;13.43;;;6.20;99.90;;;;;;5047905;28;20504;-27